Time;durP1;ratioP1;P1;durP2;ratioP2;P2;SDS_P1;SDS_P2;PMS_P1;PMS_P2;Temp;Humidity;BMP_temperature;BMP_pressure;BME280_temperature;BME280_humidity;BME280_pressure;Samples;Min_cycle;Max_cycle;Signal;HPM_P1;HPM_P2
2023/12/06 00:00:20;;;;;;;21.10;16.30;;;;;;;-0.79;67.49;101029.52;105809;1256;60364;-71
2023/12/06 00:02:49;;;;;;;24.70;17.10;;;;;;;-0.79;67.50;101032.30;105752;1261;60462;-68
2023/12/06 00:05:17;;;;;;;24.80;16.50;;;;;;;-0.79;67.42;101037.14;105021;1258;64118;-76
2023/12/06 00:07:44;;;;;;;24.50;17.20;;;;;;;-0.80;67.44;101034.39;105199;1257;60438;-70
2023/12/06 00:10:11;;;;;;;23.20;16.40;;;;;;;-0.80;67.53;101035.09;105408;1257;64071;-71
2023/12/06 00:12:39;;;;;;;22.20;16.10;;;;;;;-0.80;67.51;101038.73;105919;1261;60506;-72
2023/12/06 00:15:06;;;;;;;23.20;15.90;;;;;;;-0.82;67.36;101045.33;105649;1258;60456;-75
2023/12/06 00:17:34;;;;;;;23.00;16.50;;;;;;;-0.83;67.48;101045.19;105546;1255;64965;-71
2023/12/06 00:20:00;;;;;;;22.80;16.80;;;;;;;-0.83;67.39;101040.20;105899;1260;60478;-71
2023/12/06 00:22:28;;;;;;;21.60;15.90;;;;;;;-0.84;67.40;101038.83;105612;1261;64068;-72
2023/12/06 00:24:55;;;;;;;23.70;16.00;;;;;;;-0.85;67.42;101042.13;105770;1259;60562;-72
2023/12/06 00:27:22;;;;;;;22.10;15.80;;;;;;;-0.86;67.41;101047.85;105763;1260;60665;-72
2023/12/06 00:29:49;;;;;;;22.30;16.30;;;;;;;-0.89;67.40;101050.32;105829;1256;63686;-71
2023/12/06 00:32:16;;;;;;;23.10;16.50;;;;;;;-0.91;67.42;101048.12;105702;1258;60489;-71
2023/12/06 00:34:43;;;;;;;23.90;16.60;;;;;;;-0.90;67.39;101044.30;105882;1257;62784;-70
2023/12/06 00:37:10;;;;;;;23.90;16.80;;;;;;;-0.91;67.39;101034.99;105952;1260;60696;-71
2023/12/06 00:39:37;;;;;;;22.90;16.40;;;;;;;-0.93;67.41;101032.96;105869;1255;60479;-72
2023/12/06 00:42:04;;;;;;;23.40;16.70;;;;;;;-0.94;67.42;101027.80;105825;1258;63788;-74
2023/12/06 00:44:31;;;;;;;25.30;17.10;;;;;;;-0.93;67.40;101022.59;105827;1260;60517;-71
2023/12/06 00:46:58;;;;;;;23.00;16.60;;;;;;;-0.92;67.44;101024.98;105692;1260;64170;-73
2023/12/06 00:49:25;;;;;;;23.00;16.40;;;;;;;-0.92;67.43;101021.69;105550;1257;60534;-70
2023/12/06 00:51:53;;;;;;;23.10;16.20;;;;;;;-0.94;67.41;101020.87;105931;1261;60591;-71
2023/12/06 00:54:20;;;;;;;22.50;15.50;;;;;;;-0.95;67.39;101025.07;105784;1257;65756;-71
2023/12/06 00:56:47;;;;;;;20.20;15.00;;;;;;;-0.97;67.33;101019.55;105626;1259;60437;-70
2023/12/06 00:59:14;;;;;;;23.00;15.70;;;;;;;-0.97;67.40;101020.09;105520;1260;64024;-72
2023/12/06 01:01:41;;;;;;;20.20;14.90;;;;;;;-0.97;67.36;101014.71;105703;1258;60370;-72
2023/12/06 01:04:08;;;;;;;23.10;16.50;;;;;;;-0.99;67.37;101008.01;105629;1257;60569;-74
2023/12/06 01:06:35;;;;;;;21.90;15.30;;;;;;;-0.99;67.34;101012.86;105785;1265;66099;-74
2023/12/06 01:09:03;;;;;;;23.80;16.00;;;;;;;-1.00;67.31;101010.96;105550;1256;60562;-73
2023/12/06 01:11:30;;;;;;;24.30;16.40;;;;;;;-1.00;67.38;101004.73;105773;1259;64070;-73
2023/12/06 01:13:57;;;;;;;21.80;15.60;;;;;;;-1.00;67.35;100994.90;105822;1260;60388;-71
2023/12/06 01:16:24;;;;;;;22.80;16.50;;;;;;;-0.99;67.33;100991.27;105617;1257;60654;-71
2023/12/06 01:18:51;;;;;;;23.30;15.40;;;;;;;-1.00;67.31;100990.77;105480;1263;65145;-71
2023/12/06 01:21:18;;;;;;;21.80;16.00;;;;;;;-1.00;67.40;100987.83;105642;1262;60545;-71
2023/12/06 01:23:45;;;;;;;22.40;16.70;;;;;;;-0.99;67.44;100990.05;105596;1259;64156;-72
2023/12/06 01:26:12;;;;;;;23.30;16.50;;;;;;;-0.99;67.48;100985.88;105664;1262;60461;-70
2023/12/06 01:28:41;;;;;;;23.10;15.50;;;;;;;-0.99;67.49;100985.20;105714;1261;60477;-71
2023/12/06 01:31:08;;;;;;;21.50;15.60;;;;;;;-0.99;67.40;100981.39;105640;1261;65188;-71
2023/12/06 01:33:36;;;;;;;25.10;17.40;;;;;;;-0.98;67.38;100981.89;105533;1260;60455;-71
2023/12/06 01:36:03;;;;;;;24.20;16.60;;;;;;;-0.98;67.38;100976.89;105583;1263;64039;-72
2023/12/06 01:38:30;;;;;;;23.20;16.20;;;;;;;-1.00;67.33;100975.04;105537;1260;60540;-72
2023/12/06 01:40:57;;;;;;;21.20;15.60;;;;;;;-1.01;67.34;100971.08;105696;1258;60552;-73
2023/12/06 01:43:24;;;;;;;22.90;16.40;;;;;;;-1.02;67.25;100970.41;105512;1257;65093;-71
2023/12/06 01:45:51;;;;;;;24.30;15.50;;;;;;;-1.04;67.14;100974.26;105510;1256;60335;-71
2023/12/06 01:48:18;;;;;;;21.50;15.10;;;;;;;-1.05;67.19;100970.30;105701;1260;63871;-72
2023/12/06 01:50:45;;;;;;;25.90;16.80;;;;;;;-1.06;67.25;100969.64;105468;1257;60373;-71
2023/12/06 01:53:12;;;;;;;24.40;16.70;;;;;;;-1.07;67.16;100969.64;105724;1258;60540;-71
2023/12/06 01:55:38;;;;;;;22.60;15.60;;;;;;;-1.07;67.17;100969.29;105745;1258;64104;-71
2023/12/06 01:58:05;;;;;;;23.60;16.20;;;;;;;-1.06;67.16;100970.85;105845;1257;61016;-71
2023/12/06 02:00:33;;;;;;;23.60;15.60;;;;;;;-1.06;67.20;100970.66;105643;1258;65484;-71
2023/12/06 02:03:00;;;;;;;22.60;15.80;;;;;;;-1.06;67.12;100964.79;105261;1260;60394;-69
2023/12/06 02:05:27;;;;;;;21.10;14.80;;;;;;;-1.06;67.14;100967.73;105214;1258;60482;-69
2023/12/06 02:07:55;;;;;;;21.70;15.10;;;;;;;-1.03;67.12;100971.84;105297;1263;68606;-70
2023/12/06 02:10:22;;;;;;;19.70;13.60;;;;;;;-1.00;67.02;100974.69;105340;1258;60446;-69
2023/12/06 02:12:49;;;;;;;22.40;14.60;;;;;;;-0.99;66.94;100977.27;105676;1257;64056;-70
2023/12/06 02:15:16;;;;;;;20.90;14.40;;;;;;;-0.98;66.89;100976.36;105576;1258;60406;-69
2023/12/06 02:17:43;;;;;;;21.10;14.20;;;;;;;-0.96;66.89;100970.27;105704;1260;60472;-70
2023/12/06 02:20:10;;;;;;;19.60;14.50;;;;;;;-0.94;66.81;100967.63;105928;1257;65226;-70
2023/12/06 02:22:37;;;;;;;18.60;13.60;;;;;;;-0.92;66.69;100967.42;105971;1260;60461;-73
2023/12/06 02:25:09;;;;;;;21.40;14.10;;;;;;;-0.91;66.67;100966.52;106270;1262;66249;-70
2023/12/06 02:27:39;;;;;;;17.50;13.30;;;;;;;-0.89;66.61;100966.81;105506;1262;60902;-71
2023/12/06 02:30:08;;;;;;;18.00;13.70;;;;;;;-0.87;66.53;100964.88;105091;1257;60583;-70
2023/12/06 02:32:36;;;;;;;18.10;13.00;;;;;;;-0.85;66.56;100960.52;105311;1258;65002;-71
2023/12/06 02:35:15;;;;;;;17.30;12.90;;;;;;;-0.84;66.42;100961.17;105768;1257;60589;-70
2023/12/06 02:37:42;;;;;;;20.80;14.00;;;;;;;-0.83;66.41;100963.94;105197;1260;62667;-72
2023/12/06 02:40:10;;;;;;;18.50;13.40;;;;;;;-0.82;66.32;100964.41;105411;1256;60571;-72
2023/12/06 02:42:37;;;;;;;18.20;13.70;;;;;;;-0.81;66.32;100955.92;105785;1258;60382;-70
2023/12/06 02:45:05;;;;;;;20.30;13.30;;;;;;;-0.80;66.27;100955.89;105759;1260;65272;-70
2023/12/06 02:47:33;;;;;;;20.00;14.00;;;;;;;-0.79;66.23;100953.44;105699;1257;60530;-70
2023/12/06 02:50:00;;;;;;;20.60;14.00;;;;;;;-0.78;66.20;100950.31;105689;1260;64003;-69
2023/12/06 02:52:27;;;;;;;19.40;13.30;;;;;;;-0.77;66.16;100945.11;105674;1258;60368;-71
2023/12/06 02:54:54;;;;;;;18.20;13.40;;;;;;;-0.76;66.13;100944.76;105161;1259;60511;-70
2023/12/06 02:57:22;;;;;;;20.40;13.60;;;;;;;-0.75;66.18;100946.63;105340;1258;65080;-70
2023/12/06 02:59:50;;;;;;;18.00;12.60;;;;;;;-0.74;66.09;100948.16;105804;1256;60575;-71
2023/12/06 03:02:17;;;;;;;16.30;12.70;;;;;;;-0.74;66.04;100947.47;105785;1258;63803;-72
2023/12/06 03:04:43;;;;;;;19.20;13.70;;;;;;;-0.73;66.03;100948.29;105531;1257;60546;-71
2023/12/06 03:07:10;;;;;;;17.00;12.90;;;;;;;-0.71;65.97;100948.59;105573;1257;60398;-71
2023/12/06 03:09:37;;;;;;;18.30;12.60;;;;;;;-0.70;65.95;100949.77;105709;1260;65304;-72
2023/12/06 03:12:06;;;;;;;19.50;14.00;;;;;;;-0.69;65.92;100954.58;105525;1261;60433;-69
2023/12/06 03:14:33;;;;;;;20.30;14.10;;;;;;;-0.68;65.86;100950.94;105802;1257;62803;-69
2023/12/06 03:17:00;;;;;;;19.30;13.20;;;;;;;-0.66;65.83;100954.37;105600;1263;60447;-70
2023/12/06 03:19:27;;;;;;;20.40;13.40;;;;;;;-0.65;65.78;100956.75;105953;1260;60470;-70
2023/12/06 03:21:54;;;;;;;17.70;12.90;;;;;;;-0.65;65.58;100959.52;105321;1263;65306;-70
2023/12/06 03:24:21;;;;;;;17.80;13.50;;;;;;;-0.65;65.55;100958.66;105723;1258;60575;-71
2023/12/06 03:26:47;;;;;;;19.70;14.00;;;;;;;-0.65;65.61;100951.92;105561;1257;63873;-70
2023/12/06 03:29:14;;;;;;;20.90;14.50;;;;;;;-0.65;65.60;100956.08;105445;1258;60468;-72
2023/12/06 03:31:41;;;;;;;19.50;13.00;;;;;;;-0.65;65.51;100960.05;105622;1257;60473;-71
2023/12/06 03:34:08;;;;;;;17.90;12.60;;;;;;;-0.66;65.41;100956.61;105479;1260;65804;-71
2023/12/06 03:36:35;;;;;;;18.70;13.80;;;;;;;-0.66;65.42;100954.02;105392;1257;60329;-71
2023/12/06 03:39:02;;;;;;;19.70;14.40;;;;;;;-0.66;65.30;100953.15;105584;1257;64430;-70
2023/12/06 03:41:28;;;;;;;18.80;13.50;;;;;;;-0.66;65.21;100947.80;105553;1260;60450;-71
2023/12/06 03:43:55;;;;;;;20.20;13.80;;;;;;;-0.67;65.19;100946.27;105517;1257;62113;-70
2023/12/06 03:46:29;;;;;;;21.60;14.80;;;;;;;-0.68;65.19;100944.04;105654;1257;65745;-75
2023/12/06 03:48:56;;;;;;;20.60;14.60;;;;;;;-0.69;65.09;100941.62;105395;1258;60489;-70
2023/12/06 03:51:23;;;;;;;18.80;14.30;;;;;;;-0.70;65.02;100944.94;105632;1257;64089;-69
2023/12/06 03:53:50;;;;;;;22.90;14.80;;;;;;;-0.71;65.04;100944.09;105599;1257;60479;-69
2023/12/06 03:56:17;;;;;;;21.50;14.90;;;;;;;-0.71;64.97;100946.18;105641;1257;60221;-71
2023/12/06 03:58:44;;;;;;;21.20;15.10;;;;;;;-0.73;64.99;100945.87;105644;1255;65168;-69
2023/12/06 04:01:12;;;;;;;20.70;14.80;;;;;;;-0.75;64.97;100944.56;105542;1260;60349;-70
2023/12/06 04:03:42;;;;;;;23.50;16.90;;;;;;;-0.77;65.00;100948.22;105334;1258;63755;-72
2023/12/06 04:06:10;;;;;;;24.90;17.30;;;;;;;-0.79;65.16;100949.30;105299;1262;60397;-71
2023/12/06 04:08:37;;;;;;;27.60;19.40;;;;;;;-0.80;65.44;100948.11;105281;1263;60495;-70
2023/12/06 04:11:04;;;;;;;28.40;20.00;;;;;;;-0.80;65.69;100953.47;105637;1259;65231;-73
2023/12/06 04:13:31;;;;;;;28.60;21.10;;;;;;;-0.80;66.01;100954.52;105449;1261;60468;-69
2023/12/06 04:15:58;;;;;;;29.60;20.50;;;;;;;-0.80;66.32;100957.27;105330;1257;62834;-73
2023/12/06 04:18:25;;;;;;;30.10;21.30;;;;;;;-0.78;66.59;100957.41;105807;1257;60488;-71
2023/12/06 04:20:52;;;;;;;34.90;21.80;;;;;;;-0.78;66.72;100959.30;105863;1258;60445;-69
2023/12/06 04:23:19;;;;;;;35.10;21.20;;;;;;;-0.77;66.96;100959.98;105619;1257;65087;-73
2023/12/06 04:25:47;;;;;;;31.90;21.10;;;;;;;-0.76;67.17;100961.19;105537;1257;60397;-72
2023/12/06 04:28:13;;;;;;;33.60;22.00;;;;;;;-0.76;67.37;100962.22;105059;1262;62914;-69
2023/12/06 04:30:41;;;;;;;32.60;21.80;;;;;;;-0.77;67.53;100957.90;105460;1258;60546;-71
2023/12/06 04:33:08;;;;;;;33.20;21.10;;;;;;;-0.77;67.71;100954.62;105438;1257;60470;-70
2023/12/06 04:35:35;;;;;;;34.80;21.50;;;;;;;-0.75;67.88;100959.09;105388;1262;65225;-70
2023/12/06 04:38:02;;;;;;;36.30;22.10;;;;;;;-0.75;68.09;100962.54;105793;1257;60578;-71
2023/12/06 04:40:29;;;;;;;34.50;21.60;;;;;;;-0.75;68.24;100968.41;105545;1257;63851;-72
2023/12/06 04:42:56;;;;;;;30.30;20.90;;;;;;;-0.76;68.34;100967.41;105589;1256;60544;-72
2023/12/06 04:45:23;;;;;;;33.10;21.50;;;;;;;-0.77;68.42;100964.65;105363;1257;60589;-71
2023/12/06 04:47:50;;;;;;;27.10;18.90;;;;;;;-0.78;68.55;100964.83;105694;1257;64240;-71
2023/12/06 04:50:17;;;;;;;30.40;20.20;;;;;;;-0.79;68.63;100968.33;105746;1260;60355;-72
2023/12/06 04:52:44;;;;;;;29.90;20.80;;;;;;;-0.81;68.77;100963.89;105512;1260;62616;-71
2023/12/06 04:55:12;;;;;;;29.30;20.10;;;;;;;-0.81;68.90;100960.08;105599;1260;60444;-70
2023/12/06 04:57:38;;;;;;;31.70;20.80;;;;;;;-0.81;68.99;100959.04;105554;1255;60588;-70
2023/12/06 05:00:08;;;;;;;29.60;20.40;;;;;;;-0.80;69.03;100958.49;105439;1257;65351;-71
2023/12/06 05:02:36;;;;;;;27.90;19.20;;;;;;;-0.79;69.09;100958.98;105772;1257;60557;-70
2023/12/06 05:05:04;;;;;;;31.20;21.10;;;;;;;-0.79;69.18;100964.36;105817;1257;64083;-71
2023/12/06 05:07:31;;;;;;;32.80;21.70;;;;;;;-0.81;69.29;100965.44;105453;1255;60443;-72
2023/12/06 05:09:59;;;;;;;30.80;21.00;;;;;;;-0.81;69.32;100965.62;105952;1257;60463;-71
2023/12/06 05:12:27;;;;;;;30.70;21.30;;;;;;;-0.80;69.30;100960.23;105377;1262;65291;-70
2023/12/06 05:14:54;;;;;;;31.80;21.40;;;;;;;-0.80;69.35;100953.98;105761;1258;67301;-70
2023/12/06 05:17:21;;;;;;;30.50;20.10;;;;;;;-0.79;69.32;100949.98;105368;1263;63739;-73
2023/12/06 05:19:49;;;;;;;33.70;20.90;;;;;;;-0.78;69.39;100948.07;105657;1260;60569;-70
2023/12/06 05:22:16;;;;;;;29.00;19.50;;;;;;;-0.77;69.47;100948.40;105673;1257;60479;-70
2023/12/06 05:24:43;;;;;;;30.00;19.70;;;;;;;-0.77;69.53;100947.36;105358;1262;65003;-70
2023/12/06 05:27:10;;;;;;;31.50;21.60;;;;;;;-0.76;69.57;100946.67;105659;1256;60568;-70
2023/12/06 05:29:37;;;;;;;30.70;19.80;;;;;;;-0.77;69.61;100947.02;105538;1260;63927;-70
2023/12/06 05:32:04;;;;;;;27.60;19.50;;;;;;;-0.76;69.68;100952.88;105624;1258;60466;-70
2023/12/06 05:34:30;;;;;;;29.60;20.20;;;;;;;-0.75;69.71;100950.95;105441;1257;60469;-71
2023/12/06 05:36:58;;;;;;;28.20;19.90;;;;;;;-0.74;69.74;100950.05;105501;1260;65290;-70
2023/12/06 05:39:25;;;;;;;30.50;20.00;;;;;;;-0.73;69.71;100951.40;105763;1257;60512;-69
2023/12/06 05:41:53;;;;;;;31.50;19.40;;;;;;;-0.71;69.72;100951.19;105426;1258;63832;-71
2023/12/06 05:44:20;;;;;;;30.50;19.40;;;;;;;-0.70;69.65;100950.63;105542;1256;60427;-69
2023/12/06 05:46:46;;;;;;;28.80;19.40;;;;;;;-0.69;69.66;100946.45;105300;1260;61996;-68
2023/12/06 05:49:13;;;;;;;26.00;18.60;;;;;;;-0.69;69.49;100948.86;105529;1261;65102;-72
2023/12/06 05:51:41;;;;;;;24.10;17.90;;;;;;;-0.69;69.53;100948.36;105679;1257;60748;-72
2023/12/06 05:54:08;;;;;;;27.80;18.50;;;;;;;-0.69;69.43;100943.52;105625;1257;63898;-72
2023/12/06 05:56:36;;;;;;;25.50;18.40;;;;;;;-0.70;69.40;100940.95;105616;1258;60486;-73
2023/12/06 05:59:03;;;;;;;26.80;18.80;;;;;;;-0.70;69.40;100947.17;105902;1257;60355;-72
2023/12/06 06:01:30;;;;;;;26.70;18.80;;;;;;;-0.71;69.37;100946.34;105831;1260;65158;-70
2023/12/06 06:03:57;;;;;;;24.50;17.70;;;;;;;-0.72;69.34;100947.77;105913;1258;60559;-72
2023/12/06 06:06:24;;;;;;;28.30;18.50;;;;;;;-0.73;69.25;100948.81;105412;1257;64199;-71
2023/12/06 06:08:51;;;;;;;25.40;17.30;;;;;;;-0.74;69.26;100950.94;105475;1258;60456;-71
2023/12/06 06:11:18;;;;;;;25.20;18.00;;;;;;;-0.76;69.26;100951.33;105363;1259;60531;-71
2023/12/06 06:13:44;;;;;;;29.60;20.00;;;;;;;-0.78;69.25;100952.05;105919;1256;66654;-70
2023/12/06 06:16:15;;;;;;;26.60;18.20;;;;;;;-0.80;69.32;100957.63;105649;1257;60592;-71
2023/12/06 06:18:42;;;;;;;25.10;17.70;;;;;;;-0.81;69.33;100962.31;105295;1258;64165;-71
2023/12/06 06:21:09;;;;;;;24.90;18.40;;;;;;;-0.81;69.34;100963.36;105446;1257;60467;-71
2023/12/06 06:23:36;;;;;;;22.10;16.90;;;;;;;-0.81;69.34;100965.45;105755;1256;60475;-71
2023/12/06 06:26:03;;;;;;;25.60;18.30;;;;;;;-0.82;69.28;100959.76;105687;1256;64010;-71
2023/12/06 06:28:30;;;;;;;25.80;17.90;;;;;;;-0.83;69.33;100959.59;105765;1260;60417;-72
2023/12/06 06:30:59;;;;;;;23.40;16.60;;;;;;;-0.82;69.31;100957.50;105541;1260;64027;-70
2023/12/06 06:33:27;;;;;;;28.30;17.90;;;;;;;-0.79;69.35;100960.02;105753;1257;60426;-71
2023/12/06 06:35:54;;;;;;;24.10;17.80;;;;;;;-0.78;69.41;100959.98;105404;1256;60377;-72
2023/12/06 06:38:21;;;;;;;25.40;17.40;;;;;;;-0.76;69.41;100958.08;105412;1260;65167;-72
2023/12/06 06:40:48;;;;;;;20.80;16.30;;;;;;;-0.76;69.44;100957.89;105653;1256;60489;-73
2023/12/06 06:43:15;;;;;;;23.70;16.60;;;;;;;-0.76;69.42;100960.30;105615;1258;63826;-72
2023/12/06 06:45:43;;;;;;;23.00;16.50;;;;;;;-0.75;69.39;100967.39;105571;1261;60430;-71
2023/12/06 06:48:10;;;;;;;24.10;17.30;;;;;;;-0.75;69.36;100969.63;105653;1261;60483;-72
2023/12/06 06:50:37;;;;;;;24.00;17.60;;;;;;;-0.73;69.34;100975.81;105619;1258;65009;-72
2023/12/06 06:53:04;;;;;;;23.50;16.60;;;;;;;-0.71;69.43;100978.33;105640;1260;60538;-72
2023/12/06 06:55:31;;;;;;;24.20;17.00;;;;;;;-0.67;69.53;100979.81;105546;1261;64048;-73
2023/12/06 06:58:00;;;;;;;25.10;17.00;;;;;;;-0.65;69.48;100974.90;105540;1260;60490;-75
2023/12/06 07:00:27;;;;;;;20.90;15.60;;;;;;;-0.63;69.40;100971.39;105609;1257;60361;-71
2023/12/06 07:02:59;;;;;;;22.50;17.00;;;;;;;-0.63;69.33;100970.70;105462;1256;64015;-73
2023/12/06 07:05:26;;;;;;;23.30;16.30;;;;;;;-0.61;69.40;100970.48;105470;1260;60502;-71
2023/12/06 07:07:54;;;;;;;22.10;16.20;;;;;;;-0.56;69.46;100972.81;106814;1256;64170;-72
2023/12/06 07:10:22;;;;;;;23.40;17.00;;;;;;;-0.54;69.43;100978.10;105631;1256;60617;-71
2023/12/06 07:12:49;;;;;;;25.00;17.40;;;;;;;-0.50;69.40;100981.82;105445;1256;61018;-71
2023/12/06 07:15:16;;;;;;;23.50;17.90;;;;;;;-0.47;69.36;100978.63;105727;1256;65283;-73
2023/12/06 07:17:44;;;;;;;23.40;18.00;;;;;;;-0.42;69.35;100979.71;105591;1256;60445;-71
2023/12/06 07:20:12;;;;;;;23.90;17.60;;;;;;;-0.38;69.32;100980.82;105431;1260;62857;-72
2023/12/06 07:22:39;;;;;;;27.60;18.70;;;;;;;-0.34;69.36;100979.70;105570;1256;60503;-71
2023/12/06 07:25:06;;;;;;;24.80;17.70;;;;;;;-0.30;69.30;100978.20;105541;1256;61001;-73
2023/12/06 07:27:33;;;;;;;25.70;18.40;;;;;;;-0.26;69.22;100976.23;105625;1257;63998;-71
2023/12/06 07:30:04;;;;;;;26.40;17.00;;;;;;;-0.26;69.09;100976.03;105377;1256;60501;-72
2023/12/06 07:32:33;;;;;;;23.90;17.70;;;;;;;-0.26;69.03;100978.30;105347;1257;64138;-72
2023/12/06 07:35:16;;;;;;;26.40;18.00;;;;;;;-0.25;69.04;100978.95;105493;1257;60956;-73
2023/12/06 07:37:43;;;;;;;24.30;17.10;;;;;;;-0.23;69.03;100975.79;105566;1260;60458;-71
2023/12/06 07:40:11;;;;;;;26.60;17.80;;;;;;;-0.19;69.04;100978.13;105689;1256;63894;-73
2023/12/06 07:42:38;;;;;;;20.10;15.60;;;;;;;-0.16;69.04;100983.21;105637;1257;60630;-71
2023/12/06 07:45:11;;;;;;;21.20;16.30;;;;;;;-0.13;68.91;100984.51;105766;1257;64124;-72
2023/12/06 07:47:41;;;;;;;22.80;15.70;;;;;;;-0.10;68.93;100982.71;105889;1256;60538;-74
2023/12/06 07:50:09;;;;;;;23.10;15.90;;;;;;;-0.08;68.87;100989.41;105677;1256;60461;-71
2023/12/06 07:52:36;;;;;;;20.80;15.30;;;;;;;-0.06;68.65;100991.79;105733;1256;65062;-72
2023/12/06 07:55:13;;;;;;;21.80;15.10;;;;;;;-0.02;68.71;100996.37;105806;1260;60652;-72
2023/12/06 07:57:45;;;;;;;25.00;15.00;;;;;;;0.02;68.48;100990.39;105827;1258;63881;-72
2023/12/06 08:00:15;;;;;;;20.00;14.50;;;;;;;0.03;68.38;100990.70;105808;1258;60476;-72
2023/12/06 08:02:50;;;;;;;19.00;14.90;;;;;;;0.07;68.34;100986.09;105419;1257;60461;-73
2023/12/06 08:05:43;;;;;;;20.00;13.60;;;;;;;0.12;68.23;100983.70;105466;1260;66163;-75
2023/12/06 08:08:10;;;;;;;18.30;13.30;;;;;;;0.16;68.09;100982.55;105901;1256;60562;-72
2023/12/06 08:10:37;;;;;;;18.20;14.20;;;;;;;0.19;67.86;100986.11;105648;1257;64122;-72
2023/12/06 08:13:03;;;;;;;22.00;14.00;;;;;;;0.20;67.59;100989.55;105554;1256;60389;-71
2023/12/06 08:15:32;;;;;;;19.00;13.80;;;;;;;0.22;67.51;100990.52;105921;1255;60387;-71
2023/12/06 08:17:59;;;;;;;18.10;12.90;;;;;;;0.27;67.44;100989.17;105399;1262;65316;-72
2023/12/06 08:20:27;;;;;;;17.80;13.80;;;;;;;0.29;67.14;100988.95;105771;1255;60512;-71
2023/12/06 08:22:54;;;;;;;16.40;13.00;;;;;;;0.31;67.02;100989.25;105756;1256;63784;-71
2023/12/06 08:25:21;;;;;;;22.20;14.00;;;;;;;0.37;66.89;100985.79;105495;1255;60428;-74
2023/12/06 08:27:48;;;;;;;16.70;12.90;;;;;;;0.44;66.79;100983.85;105531;1257;60483;-72
2023/12/06 08:30:17;;;;;;;21.10;13.90;;;;;;;0.49;66.41;100984.59;105634;1256;65253;-71
2023/12/06 08:32:45;;;;;;;16.70;13.70;;;;;;;0.52;66.29;100983.61;105535;1257;60579;-72
2023/12/06 08:35:12;;;;;;;17.40;13.50;;;;;;;0.57;66.00;100986.77;105541;1259;64050;-72
2023/12/06 08:37:41;;;;;;;17.30;13.40;;;;;;;0.62;65.91;100984.75;105424;1257;60463;-72
2023/12/06 08:40:12;;;;;;;16.20;12.10;;;;;;;0.67;65.67;100981.31;105910;1260;60348;-71
2023/12/06 08:42:39;;;;;;;17.10;14.00;;;;;;;0.70;65.29;100981.75;105423;1257;64800;-73
2023/12/06 08:45:08;;;;;;;16.00;12.30;;;;;;;0.73;65.12;100979.76;105863;1256;60457;-73
2023/12/06 08:47:35;;;;;;;17.60;14.00;;;;;;;0.74;64.77;100981.43;105580;1255;63995;-71
2023/12/06 08:50:04;;;;;;;18.50;12.40;;;;;;;0.77;64.77;100977.73;105461;1256;61029;-72
2023/12/06 08:52:34;;;;;;;20.00;13.80;;;;;;;0.83;64.73;100974.23;105518;1257;60419;-72
2023/12/06 08:55:03;;;;;;;15.90;12.80;;;;;;;0.91;64.57;100976.43;105698;1256;63811;-73
2023/12/06 08:57:31;;;;;;;17.70;12.40;;;;;;;0.98;64.24;100975.01;106009;1255;60453;-74
2023/12/06 08:59:58;;;;;;;17.80;13.10;;;;;;;1.01;63.85;100977.34;105591;1256;62799;-75
2023/12/06 09:02:25;;;;;;;24.50;13.60;;;;;;;1.00;63.51;100975.98;106068;1257;60505;-71
2023/12/06 09:08:43;;;;;;;23.00;13.60;;;;;;;1.02;62.98;100970.36;105726;1256;67042;-73
2023/12/06 09:11:19;;;;;;;23.20;13.30;;;;;;;0.99;62.77;100972.20;105635;1257;60627;-72
2023/12/06 09:13:48;;;;;;;17.80;13.30;;;;;;;0.99;62.76;100975.67;105695;1262;62870;-74
2023/12/06 09:16:15;;;;;;;18.20;13.30;;;;;;;0.99;62.58;100972.38;105863;1256;60508;-73
2023/12/06 09:18:43;;;;;;;17.00;12.90;;;;;;;1.00;62.47;100969.75;106070;1255;60475;-72
2023/12/06 09:21:10;;;;;;;24.00;13.40;;;;;;;0.99;62.36;100964.23;105882;1257;66860;-73
2023/12/06 09:23:37;;;;;;;18.20;13.00;;;;;;;0.99;62.32;100963.02;106010;1256;60563;-74
2023/12/06 09:26:04;;;;;;;16.40;12.00;;;;;;;1.00;62.23;100961.26;105711;1257;65908;-75
2023/12/06 09:28:31;;;;;;;19.70;13.20;;;;;;;1.01;62.05;100958.46;105718;1257;60453;-73
2023/12/06 09:31:00;;;;;;;16.70;12.20;;;;;;;1.01;61.83;100959.32;105473;1257;60440;-75
2023/12/06 09:33:27;;;;;;;16.80;12.50;;;;;;;0.99;61.73;100956.60;105798;1257;65140;-73
2023/12/06 09:35:54;;;;;;;18.90;13.10;;;;;;;0.98;61.73;100953.68;105741;1256;60559;-75
2023/12/06 09:38:21;;;;;;;18.80;13.10;;;;;;;0.99;61.73;100947.08;105619;1256;64649;-75
2023/12/06 09:40:49;;;;;;;21.10;14.00;;;;;;;1.05;61.92;100947.38;106089;1256;60553;-75
2023/12/06 09:43:18;;;;;;;18.40;12.70;;;;;;;1.15;61.90;100942.55;105913;1255;61079;-77
2023/12/06 09:45:46;;;;;;;16.00;12.60;;;;;;;1.24;61.73;100932.91;106583;1259;65261;-74
2023/12/06 09:48:13;;;;;;;18.90;12.80;;;;;;;1.30;61.57;100927.85;106277;1259;59293;-77
2023/12/06 09:50:40;;;;;;;17.60;12.30;;;;;;;1.36;61.27;100932.37;105745;1256;65708;-73
2023/12/06 09:53:07;;;;;;;18.50;11.50;;;;;;;1.36;60.75;100931.48;106347;1254;60479;-71
2023/12/06 09:55:35;;;;;;;17.70;11.40;;;;;;;1.31;60.22;100927.29;106337;1260;60353;-71
2023/12/06 09:58:02;;;;;;;18.00;11.30;;;;;;;1.27;59.98;100928.83;105783;1257;248547;-73
2023/12/06 10:00:30;;;;;;;16.00;10.80;;;;;;;1.23;59.78;100930.00;106096;1256;68536;-73
2023/12/06 10:02:57;;;;;;;14.40;10.80;;;;;;;1.21;59.67;100928.87;106288;1256;64091;-74
2023/12/06 10:05:25;;;;;;;18.40;12.10;;;;;;;1.19;59.53;100930.48;105851;1262;60474;-72
2023/12/06 10:07:53;;;;;;;17.70;11.60;;;;;;;1.14;59.36;100931.14;106287;1258;60438;-73
2023/12/06 10:10:22;;;;;;;16.00;11.10;;;;;;;1.10;59.33;100930.92;105500;1260;65142;-73
2023/12/06 10:12:52;;;;;;;19.50;11.20;;;;;;;1.07;59.29;100926.52;106216;1257;60598;-73
2023/12/06 10:15:19;;;;;;;17.60;10.30;;;;;;;1.08;59.41;100924.74;106226;1255;73771;-71
2023/12/06 10:17:47;;;;;;;18.70;11.40;;;;;;;1.11;59.28;100925.86;106113;1256;60427;-73
2023/12/06 10:20:15;;;;;;;15.40;11.30;;;;;;;1.10;59.23;100924.00;106129;1254;60495;-74
2023/12/06 10:22:42;;;;;;;17.40;11.70;;;;;;;1.08;59.36;100916.77;106028;1259;74092;-71
2023/12/06 10:25:09;;;;;;;16.80;11.50;;;;;;;1.10;59.35;100916.70;106037;1257;60547;-72
2023/12/06 10:27:38;;;;;;;16.10;11.70;;;;;;;1.11;59.22;100915.45;106358;1256;63751;-74
2023/12/06 10:30:06;;;;;;;22.30;12.20;;;;;;;1.12;59.25;100910.04;106075;1256;60566;-72
2023/12/06 10:32:33;;;;;;;17.10;12.00;;;;;;;1.15;59.23;100908.05;105850;1256;60524;-71
2023/12/06 10:35:06;;;;;;;22.90;12.30;;;;;;;1.20;59.23;100909.98;106746;1256;65181;-72
2023/12/06 10:37:33;;;;;;;19.70;11.90;;;;;;;1.23;59.06;100911.60;106173;1256;60568;-70
2023/12/06 10:40:12;;;;;;;17.80;12.10;;;;;;;1.23;59.01;100911.44;105840;1256;62965;-71
2023/12/06 10:42:41;;;;;;;16.80;12.40;;;;;;;1.22;58.91;100909.90;106444;1255;60380;-71
2023/12/06 10:45:09;;;;;;;15.70;11.50;;;;;;;1.23;58.96;100911.27;105741;1256;60371;-71
2023/12/06 10:47:35;;;;;;;16.70;11.20;;;;;;;1.24;58.90;100909.48;105857;1254;63696;-71
2023/12/06 10:50:03;;;;;;;16.40;11.30;;;;;;;1.24;58.89;100904.96;106749;1255;60429;-70
2023/12/06 10:52:31;;;;;;;15.10;11.50;;;;;;;1.25;58.84;100905.98;106215;1256;64060;-71
2023/12/06 10:54:58;;;;;;;17.10;11.40;;;;;;;1.24;58.89;100904.27;106305;1257;61239;-71
2023/12/06 10:57:25;;;;;;;17.30;11.90;;;;;;;1.26;58.88;100907.33;106435;1256;60542;-70
2023/12/06 10:59:57;;;;;;;16.70;11.30;;;;;;;1.30;58.89;100904.10;106174;1257;66973;-71
2023/12/06 11:02:26;;;;;;;19.90;11.90;;;;;;;1.32;58.68;100898.14;105989;1257;60513;-71
2023/12/06 11:04:57;;;;;;;17.50;12.00;;;;;;;1.32;58.71;100891.69;106060;1264;66000;-72
2023/12/06 11:07:31;;;;;;;15.40;10.90;;;;;;;1.37;58.71;100891.21;106006;1255;60595;-72
2023/12/06 11:10:19;;;;;;;15.50;10.80;;;;;;;1.44;58.72;100889.04;105926;1255;60359;-73